Time;durP1;ratioP1;P1;durP2;ratioP2;P2;SDS_P1;SDS_P2;PMS_P1;PMS_P2;Temp;Humidity;BMP_temperature;BMP_pressure;BME280_temperature;BME280_humidity;BME280_pressure;Samples;Min_cycle;Max_cycle;Signal;HPM_P1;HPM_P2
2023/09/02 00:01:51;;;;;;;23.02;12.70;;;18.80;98.80;;;;;;5133865;28;20038;-82
2023/09/02 00:04:17;;;;;;;22.30;11.48;;;18.80;98.90;;;;;;5115953;28;20028;-82
2023/09/02 00:06:43;;;;;;;23.65;11.82;;;18.80;99.00;;;;;;5133799;28;20028;-82
2023/09/02 00:09:08;;;;;;;21.83;11.48;;;18.80;98.90;;;;;;5133773;28;20037;-83
2023/09/02 00:11:34;;;;;;;22.55;11.07;;;18.90;98.80;;;;;;5098823;28;20042;-83
2023/09/02 00:13:59;;;;;;;19.63;10.68;;;18.90;98.70;;;;;;5115591;28;20039;-82
2023/09/02 00:16:25;;;;;;;21.50;10.60;;;18.90;98.50;;;;;;5115732;28;20020;-83
2023/09/02 00:18:51;;;;;;;22.38;10.98;;;18.80;98.40;;;;;;5098503;28;20031;-83
2023/09/02 00:21:17;;;;;;;22.33;11.50;;;18.80;98.30;;;;;;5116018;28;20406;-83
2023/09/02 00:23:46;;;;;;;22.30;11.32;;;18.80;98.30;;;;;;5100581;28;20034;-83
2023/09/02 00:26:12;;;;;;;19.92;10.63;;;18.80;98.30;;;;;;5102728;28;20024;-83
2023/09/02 00:28:38;;;;;;;20.67;10.93;;;18.80;98.20;;;;;;5119329;28;20028;-83
2023/09/02 00:31:04;;;;;;;20.00;10.57;;;18.80;98.20;;;;;;5119221;28;20028;-83
2023/09/02 00:33:30;;;;;;;20.38;10.40;;;18.80;98.10;;;;;;5102186;28;20032;-83
2023/09/02 00:35:55;;;;;;;19.10;10.45;;;18.80;98.10;;;;;;5119256;28;20043;-83
2023/09/02 00:38:21;;;;;;;20.42;10.10;;;18.80;98.10;;;;;;5102232;28;20032;-82
2023/09/02 00:40:56;;;;;;;17.92;10.00;;;18.80;98.00;;;;;;5119029;28;20028;-83
2023/09/02 00:43:22;;;;;;;18.65;10.10;;;18.80;97.90;;;;;;5136822;28;20459;-83
2023/09/02 00:45:47;;;;;;;21.45;10.48;;;18.80;98.00;;;;;;5118973;28;20070;-83
2023/09/02 00:48:13;;;;;;;17.95;9.43;;;18.80;98.00;;;;;;5119033;28;20088;-82
2023/09/02 00:50:39;;;;;;;17.63;9.63;;;18.80;97.90;;;;;;5119109;28;20030;-82
2023/09/02 00:53:04;;;;;;;19.48;10.30;;;18.80;97.90;;;;;;5101830;28;20050;-82
2023/09/02 00:55:30;;;;;;;18.70;9.55;;;18.80;97.90;;;;;;5118900;28;20493;-83
2023/09/02 00:57:58;;;;;;;19.45;9.68;;;18.80;97.80;;;;;;5118950;28;20040;-83
2023/09/02 01:00:23;;;;;;;18.90;10.32;;;18.80;97.80;;;;;;5085588;28;20020;-83
2023/09/02 01:02:50;;;;;;;19.48;9.57;;;18.80;97.80;;;;;;5101610;28;20032;-82
2023/09/02 01:05:16;;;;;;;15.98;8.95;;;18.80;97.70;;;;;;5136415;28;20460;-83
2023/09/02 01:07:44;;;;;;;17.88;10.15;;;18.70;97.80;;;;;;5118499;28;20020;-83
2023/09/02 01:10:10;;;;;;;20.63;10.32;;;18.70;97.90;;;;;;5118409;28;20027;-83
2023/09/02 01:12:36;;;;;;;19.63;10.45;;;18.70;97.90;;;;;;5136410;28;20032;-83
2023/09/02 01:15:02;;;;;;;23.13;12.05;;;18.80;98.00;;;;;;5101365;28;20028;-82
2023/09/02 01:17:28;;;;;;;23.02;11.63;;;18.80;97.90;;;;;;5101452;28;20024;-83
2023/09/02 01:19:56;;;;;;;22.77;11.85;;;18.80;98.10;;;;;;5118339;28;20054;-82
2023/09/02 01:22:38;;;;;;;20.13;10.63;;;18.70;97.80;;;;;;5117948;28;20035;-82
2023/09/02 01:25:41;;;;;;;23.30;11.38;;;18.70;97.90;;;;;;5136273;28;20019;-83
2023/09/02 01:28:17;;;;;;;21.10;11.13;;;18.70;97.80;;;;;;5136162;28;20030;-83
2023/09/02 01:30:46;;;;;;;18.45;10.13;;;18.70;97.90;;;;;;5117959;28;20038;-83
2023/09/02 01:33:12;;;;;;;21.15;10.90;;;18.70;97.90;;;;;;5118098;28;20016;-83
2023/09/02 01:35:38;;;;;;;20.38;10.38;;;18.70;97.80;;;;;;5100145;28;20165;-82
2023/09/02 01:38:06;;;;;;;18.42;9.63;;;18.60;97.60;;;;;;5118061;28;20031;-83
2023/09/02 01:40:33;;;;;;;21.50;10.00;;;18.60;97.80;;;;;;5100952;28;20103;-82
2023/09/02 01:42:59;;;;;;;22.23;10.88;;;18.60;97.90;;;;;;5135681;28;20028;-82
2023/09/02 01:45:27;;;;;;;20.85;10.32;;;18.60;98.00;;;;;;5100805;28;20080;-81
2023/09/02 01:47:54;;;;;;;21.02;10.77;;;18.60;98.10;;;;;;5135654;28;20046;-83
2023/09/02 01:50:23;;;;;;;21.77;11.20;;;18.60;98.10;;;;;;5117570;28;20037;-83
2023/09/02 01:52:50;;;;;;;20.67;10.57;;;18.60;98.20;;;;;;5135438;28;20054;-82
2023/09/02 01:55:19;;;;;;;20.08;10.05;;;18.70;98.20;;;;;;5117470;28;20032;-82
2023/09/02 01:57:45;;;;;;;18.95;10.50;;;18.70;98.10;;;;;;5100493;28;20032;-82
2023/09/02 02:00:11;;;;;;;19.23;9.90;;;18.70;98.10;;;;;;5117375;28;20024;-83
2023/09/02 02:02:38;;;;;;;21.10;10.45;;;18.70;98.20;;;;;;5100532;28;20047;-83
2023/09/02 02:05:06;;;;;;;22.20;10.35;;;18.70;98.20;;;;;;5117299;28;20053;-82
2023/09/02 02:07:35;;;;;;;18.60;10.13;;;18.70;98.20;;;;;;5135591;28;20019;-83
2023/09/02 02:10:04;;;;;;;20.73;11.15;;;18.70;98.10;;;;;;5135413;28;20027;-82
2023/09/02 02:12:30;;;;;;;20.23;10.65;;;18.70;98.10;;;;;;5134973;28;20024;-81
2023/09/02 02:14:56;;;;;;;22.30;10.68;;;18.70;98.10;;;;;;5100403;28;20043;-82
2023/09/02 02:17:22;;;;;;;18.40;10.65;;;18.70;98.00;;;;;;5100182;28;20045;-82
2023/09/02 02:19:48;;;;;;;22.42;10.38;;;18.70;98.00;;;;;;5117238;28;20028;-83
2023/09/02 02:22:13;;;;;;;23.80;11.68;;;18.80;98.00;;;;;;5117265;28;20024;-82
2023/09/02 02:24:39;;;;;;;20.52;11.02;;;18.70;98.00;;;;;;5117178;28;20023;-82
2023/09/02 02:27:05;;;;;;;20.80;10.57;;;18.70;97.80;;;;;;5117094;28;20042;-82
2023/09/02 02:29:30;;;;;;;20.70;10.10;;;18.70;97.80;;;;;;5135011;28;20059;-82
2023/09/02 02:31:56;;;;;;;18.42;9.93;;;18.70;97.90;;;;;;5116918;28;20036;-82
2023/09/02 02:34:23;;;;;;;19.35;9.77;;;18.60;97.90;;;;;;5134827;28;20031;-83
2023/09/02 02:36:49;;;;;;;17.95;9.30;;;18.70;97.90;;;;;;5116844;28;20020;-82
2023/09/02 02:39:17;;;;;;;15.82;8.73;;;18.60;97.90;;;;;;5116808;28;20045;-83
2023/09/02 02:41:42;;;;;;;17.15;9.15;;;18.60;98.00;;;;;;5116784;28;20069;-82
2023/09/02 02:44:08;;;;;;;36.50;9.15;;;18.50;98.00;;;;;;5116804;28;20049;-82
2023/09/02 02:46:33;;;;;;;19.17;8.77;;;18.50;97.80;;;;;;5099777;28;20032;-83
2023/09/02 02:48:59;;;;;;;16.27;9.02;;;18.50;97.70;;;;;;5134610;28;20031;-82
2023/09/02 02:51:26;;;;;;;18.80;9.48;;;18.50;97.80;;;;;;5116628;28;20486;-83
2023/09/02 02:53:51;;;;;;;16.63;9.00;;;18.50;97.90;;;;;;5099518;28;20074;-82
2023/09/02 02:56:17;;;;;;;19.75;9.15;;;18.50;97.90;;;;;;5116515;28;20035;-82
2023/09/02 02:58:43;;;;;;;17.55;9.85;;;18.50;97.90;;;;;;5116357;28;20034;-83
2023/09/02 03:01:11;;;;;;;16.63;9.32;;;18.50;97.90;;;;;;5099508;28;20054;-82
2023/09/02 03:03:37;;;;;;;18.58;9.05;;;18.40;97.80;;;;;;5116464;28;20034;-82
2023/09/02 03:06:05;;;;;;;17.17;9.32;;;18.40;97.70;;;;;;5099765;28;20045;-82
2023/09/02 03:08:32;;;;;;;17.20;9.55;;;18.40;97.70;;;;;;5116425;28;20051;-82
2023/09/02 03:11:00;;;;;;;15.60;8.60;;;18.40;97.80;;;;;;5116380;28;20020;-82
2023/09/02 03:13:27;;;;;;;14.55;8.40;;;18.40;97.80;;;;;;5134321;28;20028;-82
2023/09/02 03:15:56;;;;;;;14.70;7.72;;;18.40;97.80;;;;;;5116428;28;20023;-83
2023/09/02 03:18:22;;;;;;;20.25;8.82;;;18.40;97.80;;;;;;5116295;28;20092;-82
2023/09/02 03:20:48;;;;;;;16.58;8.50;;;18.40;97.70;;;;;;5134441;28;20027;-80
2023/09/02 03:23:14;;;;;;;16.05;8.60;;;18.40;97.60;;;;;;5082476;28;20032;-82
2023/09/02 03:25:40;;;;;;;19.35;9.20;;;18.30;97.70;;;;;;5134019;28;20020;-83
2023/09/02 03:28:06;;;;;;;21.92;8.23;;;18.30;97.90;;;;;;5134263;28;20030;-82
2023/09/02 03:30:32;;;;;;;16.17;8.55;;;18.30;97.90;;;;;;5134192;28;20026;-81
2023/09/02 03:32:58;;;;;;;15.38;8.27;;;18.30;97.90;;;;;;5116023;28;20043;-82
2023/09/02 03:35:24;;;;;;;17.23;8.25;;;18.30;97.90;;;;;;5116117;28;20031;-82
2023/09/02 03:37:51;;;;;;;17.98;8.65;;;18.30;98.00;;;;;;5134029;28;20028;-82
2023/09/02 03:40:16;;;;;;;15.88;8.95;;;18.30;98.00;;;;;;5116479;28;20035;-83
2023/09/02 03:42:42;;;;;;;15.55;8.43;;;18.30;98.00;;;;;;5115879;28;20046;-82
2023/09/02 03:45:09;;;;;;;16.13;8.40;;;18.30;98.00;;;;;;5115928;28;20045;-82
2023/09/02 03:47:35;;;;;;;19.08;8.00;;;18.30;97.90;;;;;;5116011;28;20024;-83
2023/09/02 03:50:05;;;;;;;14.98;8.63;;;18.30;97.90;;;;;;5099454;28;20024;-82
2023/09/02 03:52:31;;;;;;;14.80;8.13;;;18.30;97.80;;;;;;5116955;28;20069;-83
2023/09/02 03:54:58;;;;;;;15.65;8.48;;;18.20;97.90;;;;;;5133770;28;20024;-82
2023/09/02 03:57:24;;;;;;;13.77;8.15;;;18.20;98.00;;;;;;5133980;28;20015;-82
2023/09/02 03:59:49;;;;;;;14.38;7.38;;;18.20;98.00;;;;;;5119760;28;20042;-82
2023/09/02 04:02:15;;;;;;;19.02;8.15;;;18.20;97.80;;;;;;5119810;28;20057;-82
2023/09/02 04:04:41;;;;;;;16.10;8.90;;;18.20;97.80;;;;;;5137726;28;20040;-81
2023/09/02 04:07:07;;;;;;;15.75;8.63;;;18.20;98.00;;;;;;5102679;28;20027;-82
2023/09/02 04:09:34;;;;;;;20.63;9.00;;;18.10;98.10;;;;;;5137734;28;20034;-83
2023/09/02 04:12:00;;;;;;;17.73;8.85;;;18.20;98.10;;;;;;5103008;28;20045;-82
2023/09/02 04:14:25;;;;;;;16.42;8.65;;;18.10;98.10;;;;;;5119816;28;20020;-81
2023/09/02 04:16:54;;;;;;;16.42;9.32;;;18.10;98.10;;;;;;5102693;28;20061;-83
2023/09/02 04:19:22;;;;;;;16.00;8.25;;;18.10;98.20;;;;;;5119747;28;20049;-83
2023/09/02 04:21:49;;;;;;;14.68;8.60;;;18.10;98.30;;;;;;5137400;28;20041;-82
2023/09/02 04:24:15;;;;;;;15.30;8.25;;;18.10;98.30;;;;;;5119207;28;20023;-82
2023/09/02 04:26:40;;;;;;;13.63;8.38;;;18.20;98.40;;;;;;5102351;28;20490;-82
2023/09/02 04:29:06;;;;;;;14.85;8.60;;;18.20;98.40;;;;;;5085489;28;20028;-82
2023/09/02 04:31:32;;;;;;;16.70;8.50;;;18.20;98.30;;;;;;5102330;28;20039;-83
2023/09/02 04:33:57;;;;;;;14.73;7.88;;;18.20;98.20;;;;;;5137099;28;20023;-82
2023/09/02 04:36:23;;;;;;;17.55;8.60;;;18.20;98.20;;;;;;5119063;28;20053;-82
2023/09/02 04:38:51;;;;;;;16.30;8.18;;;18.20;98.10;;;;;;5119218;28;20027;-82
2023/09/02 04:41:17;;;;;;;15.93;7.90;;;18.10;98.10;;;;;;5137115;28;20550;-82
2023/09/02 04:43:43;;;;;;;15.35;8.43;;;18.10;98.20;;;;;;5137037;28;20020;-82
2023/09/02 04:46:09;;;;;;;14.45;8.50;;;18.10;98.10;;;;;;5136872;28;20463;-82
2023/09/02 04:48:34;;;;;;;14.90;8.38;;;18.20;98.20;;;;;;5118860;28;20035;-81
2023/09/02 04:51:03;;;;;;;15.02;8.45;;;18.20;98.20;;;;;;5118813;28;20024;-82
2023/09/02 04:53:29;;;;;;;11.30;7.47;;;18.20;98.20;;;;;;5102003;28;20093;-82
2023/09/02 04:55:54;;;;;;;12.52;7.65;;;18.20;98.10;;;;;;5118793;28;20032;-82
2023/09/02 04:58:22;;;;;;;12.15;7.15;;;18.20;98.10;;;;;;5118597;28;20020;-81
2023/09/02 05:00:48;;;;;;;14.07;7.25;;;18.20;98.10;;;;;;5118533;28;20028;-81
2023/09/02 05:03:14;;;;;;;11.70;6.88;;;18.20;98.10;;;;;;5118444;28;20028;-82
2023/09/02 05:05:40;;;;;;;11.55;7.18;;;18.20;98.10;;;;;;5136540;28;20019;-82
2023/09/02 05:08:06;;;;;;;13.23;7.30;;;18.20;98.10;;;;;;5136471;28;20040;-82
2023/09/02 05:10:32;;;;;;;9.98;6.72;;;18.20;98.10;;;;;;5135131;28;20028;-82
2023/09/02 05:12:57;;;;;;;19.67;7.78;;;18.20;98.10;;;;;;5118438;28;20043;-82
2023/09/02 05:15:23;;;;;;;11.68;7.63;;;18.10;98.10;;;;;;5101732;28;20502;-82
2023/09/02 05:17:50;;;;;;;11.07;7.35;;;18.10;98.20;;;;;;5084575;28;20027;-82
2023/09/02 05:20:16;;;;;;;15.32;8.93;;;18.10;98.30;;;;;;5118377;28;20054;-82
2023/09/02 05:22:41;;;;;;;13.95;7.75;;;18.20;98.30;;;;;;5101209;28;20027;-82
2023/09/02 05:25:07;;;;;;;13.45;7.97;;;18.20;98.30;;;;;;5118215;28;20106;-82
2023/09/02 05:27:33;;;;;;;11.93;7.50;;;18.20;98.30;;;;;;5118118;28;20352;-81
2023/09/02 05:29:59;;;;;;;15.82;8.73;;;18.20;98.40;;;;;;5084383;28;20149;-81
2023/09/02 05:32:24;;;;;;;12.82;7.95;;;18.20;98.70;;;;;;5118014;28;20034;-80
2023/09/02 05:34:50;;;;;;;14.60;8.85;;;18.20;98.30;;;;;;5117925;28;20024;-83
2023/09/02 05:37:16;;;;;;;14.80;8.43;;;18.20;98.40;;;;;;5118057;28;20127;-82
2023/09/02 05:39:42;;;;;;;12.35;8.00;;;18.20;98.40;;;;;;5117802;28;20028;-82
2023/09/02 05:42:08;;;;;;;15.40;8.57;;;18.20;98.40;;;;;;5101024;28;20016;-82
2023/09/02 05:44:36;;;;;;;15.35;9.23;;;18.20;98.40;;;;;;5117729;28;20081;-82
2023/09/02 05:47:02;;;;;;;16.23;8.82;;;18.20;98.40;;;;;;5135635;28;20015;-81
2023/09/02 05:49:28;;;;;;;14.40;8.27;;;18.20;98.50;;;;;;5084264;28;20008;-85
2023/09/02 05:51:53;;;;;;;17.00;9.32;;;18.20;98.60;;;;;;5100950;28;20019;-85
2023/09/02 05:54:19;;;;;;;14.43;8.80;;;18.20;98.60;;;;;;5097383;28;20040;-85
2023/09/02 05:56:47;;;;;;;14.98;9.15;;;18.20;99.00;;;;;;5097276;28;20028;-85
2023/09/02 05:59:13;;;;;;;17.63;10.13;;;18.20;98.80;;;;;;5114374;28;20024;-85
2023/09/02 06:01:38;;;;;;;15.82;9.57;;;18.20;98.80;;;;;;5114459;28;20032;-84
2023/09/02 06:04:04;;;;;;;16.70;8.98;;;18.20;98.90;;;;;;5097326;28;20040;-86
2023/09/02 06:06:30;;;;;;;19.35;10.20;;;18.20;98.90;;;;;;5115378;28;20031;-89
2023/09/02 06:08:55;;;;;;;18.42;10.13;;;18.30;99.00;;;;;;5097338;28;20035;-88
2023/09/02 06:11:21;;;;;;;19.08;10.52;;;18.30;99.30;;;;;;5114692;28;20020;-92
2023/09/02 06:13:47;;;;;;;18.83;9.98;;;18.40;98.90;;;;;;5114187;28;20020;-84
2023/09/02 06:16:12;;;;;;;17.45;9.60;;;18.40;98.90;;;;;;5097135;28;20395;-89
2023/09/02 06:18:38;;;;;;;17.75;10.40;;;18.40;98.90;;;;;;5114378;28;20035;-90
2023/09/02 06:21:12;;;;;;;18.15;11.07;;;18.40;98.90;;;;;;5114201;28;20039;-91
2023/09/02 06:23:39;;;;;;;16.63;10.77;;;18.40;98.90;;;;;;5115158;28;20008;-91
2023/09/02 06:26:05;;;;;;;17.00;10.48;;;18.40;99.00;;;;;;5115716;28;20023;-91
2023/09/02 06:28:31;;;;;;;20.75;10.95;;;18.40;99.00;;;;;;5098051;28;20028;-88
2023/09/02 06:30:57;;;;;;;16.85;10.85;;;18.50;99.00;;;;;;5114298;28;20361;-84
2023/09/02 06:33:24;;;;;;;20.30;12.07;;;18.50;99.10;;;;;;5113852;28;20036;-89
2023/09/02 06:35:50;;;;;;;20.50;12.18;;;18.50;99.10;;;;;;5115506;28;20034;-89
2023/09/02 06:38:17;;;;;;;20.77;12.68;;;18.50;99.10;;;;;;5114567;28;20057;-90
2023/09/02 06:40:43;;;;;;;22.08;12.98;;;18.50;99.20;;;;;;5114903;28;20035;-86
2023/09/02 06:43:09;;;;;;;21.13;12.80;;;18.60;99.30;;;;;;5096753;28;20032;-86
2023/09/02 06:45:34;;;;;;;24.23;13.52;;;18.60;99.30;;;;;;5114052;28;20028;-86
2023/09/02 06:48:00;;;;;;;20.25;12.35;;;18.60;99.30;;;;;;5097081;28;20087;-85
2023/09/02 06:50:27;;;;;;;20.55;13.05;;;18.60;99.40;;;;;;5096631;28;20020;-86
2023/09/02 06:52:53;;;;;;;21.52;13.18;;;18.60;99.40;;;;;;5113229;28;20040;-84
2023/09/02 06:55:18;;;;;;;21.95;13.43;;;18.70;99.40;;;;;;5096647;28;20032;-87
2023/09/02 06:57:44;;;;;;;25.67;13.93;;;18.70;99.50;;;;;;5113537;28;20032;-88
2023/09/02 07:00:12;;;;;;;21.50;13.55;;;18.70;99.40;;;;;;5113437;28;20039;-86
2023/09/02 07:02:37;;;;;;;24.98;14.15;;;18.80;99.40;;;;;;5113745;28;20027;-88
2023/09/02 07:05:03;;;;;;;23.55;14.27;;;18.80;99.40;;;;;;5098689;28;20009;-89
2023/09/02 07:07:29;;;;;;;22.40;13.73;;;18.80;99.40;;;;;;5080683;28;20027;-85
2023/09/02 07:09:55;;;;;;;23.73;14.18;;;18.90;99.50;;;;;;5113459;28;20054;-85
2023/09/02 07:12:20;;;;;;;23.17;14.43;;;18.90;99.40;;;;;;5114748;28;20046;-88
2023/09/02 07:14:46;;;;;;;20.75;13.30;;;19.00;99.40;;;;;;5096427;28;20526;-87
2023/09/02 07:17:12;;;;;;;22.45;14.63;;;18.90;99.40;;;;;;5079812;28;20053;-86
2023/09/02 07:19:37;;;;;;;23.98;14.75;;;18.90;99.30;;;;;;5096517;28;20032;-87
2023/09/02 07:22:04;;;;;;;23.08;15.43;;;18.90;99.40;;;;;;5096540;28;20032;-88
2023/09/02 07:24:30;;;;;;;23.92;15.32;;;18.90;99.50;;;;;;5113996;28;20039;-88
2023/09/02 07:26:55;;;;;;;22.63;15.10;;;18.90;99.70;;;;;;5096596;28;20084;-86
2023/09/02 07:29:21;;;;;;;24.67;15.57;;;18.90;99.70;;;;;;5114144;28;20034;-87
2023/09/02 07:31:47;;;;;;;25.25;15.52;;;18.90;99.70;;;;;;5113373;28;20024;-87
2023/09/02 07:34:13;;;;;;;24.17;15.68;;;18.90;99.70;;;;;;5116338;28;20039;-88
2023/09/02 07:36:39;;;;;;;26.17;16.52;;;18.90;99.90;;;;;;5117477;28;20060;-87
2023/09/02 07:39:04;;;;;;;28.88;16.63;;;18.90;99.90;;;;;;5100423;28;20020;-88
2023/09/02 07:41:30;;;;;;;26.35;17.40;;;18.90;99.90;;;;;;5118429;28;20024;-88
2023/09/02 07:43:56;;;;;;;27.85;16.73;;;18.90;99.90;;;;;;5118016;28;20073;-88
2023/09/02 07:46:22;;;;;;;28.33;16.88;;;18.90;99.90;;;;;;5117849;28;20029;-87
2023/09/02 07:48:51;;;;;;;31.85;17.52;;;18.90;99.90;;;;;;5117081;28;20057;-88
2023/09/02 07:51:19;;;;;;;26.27;16.60;;;18.90;99.90;;;;;;5084228;28;20101;-88
2023/09/02 07:53:45;;;;;;;27.80;17.92;;;18.90;99.90;;;;;;5129113;28;20055;-88
2023/09/02 07:56:11;;;;;;;28.60;16.92;;;19.00;99.90;;;;;;5120598;28;20023;-88
2023/09/02 07:58:37;;;;;;;30.35;17.83;;;19.00;99.90;;;;;;5103284;28;20475;-88
2023/09/02 08:01:02;;;;;;;28.23;16.00;;;19.00;99.90;;;;;;5103474;28;20028;-88
2023/09/02 08:03:28;;;;;;;29.55;17.20;;;19.10;99.90;;;;;;5103190;28;20028;-89
2023/09/02 08:05:54;;;;;;;26.55;16.85;;;19.10;99.90;;;;;;5120301;28;20189;-89
2023/09/02 08:08:20;;;;;;;26.48;16.98;;;19.20;99.90;;;;;;5102997;28;20028;-88
2023/09/02 08:10:45;;;;;;;30.13;17.63;;;19.30;99.90;;;;;;5103355;28;20024;-88
2023/09/02 08:13:11;;;;;;;27.98;17.55;;;19.30;99.90;;;;;;5120219;28;20034;-88
2023/09/02 08:15:40;;;;;;;30.08;18.33;;;19.30;99.90;;;;;;5103544;28;20023;-88
2023/09/02 08:18:06;;;;;;;31.48;19.10;;;19.40;99.90;;;;;;5120714;28;20486;-86
2023/09/02 08:20:31;;;;;;;28.08;17.75;;;19.40;99.90;;;;;;5103287;28;20042;-82
2023/09/02 08:22:57;;;;;;;27.70;17.92;;;19.40;99.90;;;;;;5119402;28;20101;-83
2023/09/02 08:25:23;;;;;;;28.67;18.23;;;19.50;99.90;;;;;;5120372;28;20026;-87
2023/09/02 08:27:49;;;;;;;31.35;18.48;;;19.50;99.90;;;;;;5102956;28;20383;-86
2023/09/02 08:30:15;;;;;;;32.55;19.45;;;19.50;99.90;;;;;;5102884;28;20024;-88
2023/09/02 08:32:41;;;;;;;32.55;19.23;;;19.50;99.90;;;;;;5103448;28;20027;-88
2023/09/02 08:35:08;;;;;;;29.65;18.25;;;19.60;99.90;;;;;;5119638;28;20019;-87
2023/09/02 08:37:34;;;;;;;30.85;18.92;;;19.60;99.90;;;;;;5102878;28;20024;-87
2023/09/02 08:40:01;;;;;;;29.52;19.05;;;19.70;99.90;;;;;;5119488;28;20019;-86
2023/09/02 08:42:27;;;;;;;31.40;18.65;;;19.70;99.80;;;;;;5137532;28;20035;-87
2023/09/02 08:44:55;;;;;;;32.40;19.08;;;19.70;99.80;;;;;;5102171;28;20015;-86
2023/09/02 08:47:22;;;;;;;30.38;17.88;;;19.70;99.80;;;;;;5119326;28;20079;-87
2023/09/02 08:49:50;;;;;;;30.40;17.20;;;19.70;99.80;;;;;;5119425;28;20110;-86
2023/09/02 08:52:15;;;;;;;32.42;17.50;;;19.70;99.80;;;;;;5137378;28;20024;-86
2023/09/02 08:54:43;;;;;;;32.72;18.27;;;19.70;99.70;;;;;;5101900;28;20047;-87
2023/09/02 08:57:12;;;;;;;33.65;18.90;;;19.70;99.70;;;;;;5119113;28;20087;-86
2023/09/02 08:59:38;;;;;;;31.45;17.85;;;19.70;99.70;;;;;;5102779;28;20035;-87
2023/09/02 09:02:04;;;;;;;31.55;18.52;;;19.70;99.80;;;;;;5102305;28;20036;-86
2023/09/02 09:04:33;;;;;;;30.02;17.63;;;19.70;99.80;;;;;;5118907;28;20032;-87
2023/09/02 09:07:04;;;;;;;30.70;17.80;;;19.70;99.80;;;;;;5119271;28;20041;-87
2023/09/02 09:09:34;;;;;;;30.63;17.30;;;19.80;99.80;;;;;;5102169;28;20096;-87
2023/09/02 09:12:01;;;;;;;29.88;16.13;;;19.70;99.80;;;;;;5136887;28;20105;-87
2023/09/02 09:14:35;;;;;;;29.20;16.33;;;19.60;99.80;;;;;;5118868;28;20027;-87
2023/09/02 09:17:01;;;;;;;29.15;16.27;;;19.60;99.90;;;;;;5136631;28;20066;-87
2023/09/02 09:19:30;;;;;;;28.92;16.42;;;19.60;99.90;;;;;;5118614;28;20020;-87
2023/09/02 09:21:57;;;;;;;28.55;16.00;;;19.60;99.90;;;;;;5136395;28;20019;-86
2023/09/02 09:24:23;;;;;;;27.63;15.35;;;19.70;99.90;;;;;;5102733;28;20077;-87
2023/09/02 09:26:49;;;;;;;26.95;15.50;;;19.60;99.90;;;;;;5122636;28;20028;-86
2023/09/02 09:29:16;;;;;;;30.85;16.77;;;19.70;99.90;;;;;;5119143;28;20034;-86
2023/09/02 09:31:43;;;;;;;25.02;15.23;;;19.70;99.90;;;;;;5101860;28;20023;-86
2023/09/02 09:34:09;;;;;;;25.85;15.00;;;19.70;99.90;;;;;;5118486;28;20028;-87
2023/09/02 09:36:35;;;;;;;26.33;15.23;;;19.70;99.90;;;;;;5118691;28;20023;-88
2023/09/02 09:39:06;;;;;;;27.42;15.10;;;19.80;99.90;;;;;;5118784;28;20016;-88
2023/09/02 09:41:32;;;;;;;27.83;15.55;;;19.80;99.90;;;;;;5118760;28;20031;-88
2023/09/02 09:44:12;;;;;;;26.48;15.50;;;19.80;99.90;;;;;;5120135;28;20036;-87
2023/09/02 09:46:44;;;;;;;26.38;14.90;;;19.90;99.80;;;;;;5137179;28;20413;-87
2023/09/02 09:49:30;;;;;;;26.98;15.07;;;19.80;99.70;;;;;;5119912;28;20019;-87
2023/09/02 09:52:03;;;;;;;28.30;15.27;;;19.80;99.60;;;;;;5137347;28;20015;-87
2023/09/02 09:54:45;;;;;;;27.77;14.98;;;19.80;99.80;;;;;;5119219;28;20082;-87
2023/09/02 09:57:14;;;;;;;;;;;19.90;99.80;;;;;;5117832;28;20020;-87
2023/09/02 09:59:51;;;;;;;25.30;13.27;;;19.80;99.90;;;;;;5118357;28;19971;-87
2023/09/02 10:02:18;;;;;;;27.40;15.38;;;19.90;99.90;;;;;;5136089;28;20083;-87
2023/09/02 10:04:59;;;;;;;27.33;14.93;;;19.90;99.90;;;;;;5117994;28;20047;-87
2023/09/02 10:07:33;;;;;;;29.38;15.02;;;19.90;99.90;;;;;;5136068;28;20004;-88
2023/09/02 10:10:01;;;;;;;28.15;14.63;;;20.00;99.90;;;;;;5117907;28;20008;-87
2023/09/02 10:12:33;;;;;;;27.88;14.63;;;20.00;99.90;;;;;;5117924;28;20027;-88
2023/09/02 10:14:59;;;;;;;27.77;13.65;;;20.00;99.90;;;;;;5101898;28;20023;-88
2023/09/02 10:17:25;;;;;;;29.08;15.68;;;20.00;99.90;;;;;;5101339;28;20020;-87
2023/09/02 10:19:51;;;;;;;30.20;15.30;;;20.10;99.90;;;;;;5118637;28;20023;-88
2023/09/02 10:22:20;;;;;;;27.75;15.02;;;20.10;99.80;;;;;;5140145;28;20023;-88
2023/09/02 10:24:51;;;;;;;30.63;16.02;;;20.10;99.80;;;;;;5103124;28;20095;-89
2023/09/02 10:27:23;;;;;;;27.17;15.57;;;20.10;99.70;;;;;;5119063;28;20016;-89
2023/09/02 10:29:57;;;;;;;27.67;14.52;;;20.10;99.70;;;;;;5119037;28;20114;-88
2023/09/02 10:32:40;;;;;;;26.05;14.48;;;20.00;99.70;;;;;;5118883;28;20023;-88
2023/09/02 10:35:20;;;;;;;32.92;15.90;;;20.00;99.70;;;;;;5119320;28;20091;-89
2023/09/02 10:37:54;;;;;;;31.05;16.13;;;20.10;99.70;;;;;;5117749;28;20035;-89
2023/09/02 10:40:30;;;;;;;30.98;16.05;;;20.10;99.70;;;;;;5100591;28;20023;-89
2023/09/02 10:42:55;;;;;;;27.67;14.38;;;20.10;99.70;;;;;;5135198;28;20051;-89
2023/09/02 10:45:21;;;;;;;30.40;15.77;;;20.20;99.70;;;;;;5100503;28;20026;-89
2023/09/02 10:47:48;;;;;;;27.98;15.70;;;20.20;99.80;;;;;;5117203;28;20023;-89
2023/09/02 10:50:16;;;;;;;30.60;16.55;;;20.20;99.70;;;;;;5100447;28;20091;-89
2023/09/02 10:52:42;;;;;;;27.38;14.93;;;20.30;99.70;;;;;;5117110;28;20039;-89
2023/09/02 10:55:09;;;;;;;27.55;16.05;;;20.30;99.50;;;;;;5099838;28;20047;-89
2023/09/02 10:57:46;;;;;;;27.27;15.75;;;20.30;99.40;;;;;;5135195;28;20040;-88
2023/09/02 11:00:19;;;;;;;27.88;15.30;;;20.30;99.40;;;;;;5116859;28;20099;-89
2023/09/02 11:02:48;;;;;;;30.90;16.05;;;20.30;99.40;;;;;;5101152;28;20092;-90
2023/09/02 11:05:14;;;;;;;29.75;16.45;;;20.30;99.40;;;;;;5117486;28;20038;-89
2023/09/02 11:07:40;;;;;;;29.08;16.00;;;20.30;99.40;;;;;;5099828;28;20016;-89
2023/09/02 11:10:08;;;;;;;27.67;16.35;;;20.30;99.40;;;;;;5100840;28;20027;-89
2023/09/02 11:12:34;;;;;;;28.38;15.32;;;20.30;99.40;;;;;;5116950;28;20027;-89
2023/09/02 11:15:09;;;;;;;26.75;15.02;;;20.40;99.40;;;;;;5100050;28;20030;-89
2023/09/02 11:17:44;;;;;;;28.25;15.05;;;20.50;99.40;;;;;;5117446;28;20053;-89
2023/09/02 11:20:14;;;;;;;29.45;15.98;;;20.50;99.30;;;;;;5135256;28;20019;-89
2023/09/02 11:22:45;;;;;;;26.38;15.32;;;20.60;99.20;;;;;;5116795;28;20079;-89
2023/09/02 11:25:22;;;;;;;29.87;16.37;;;20.60;99.20;;;;;;5116844;28;20053;-89
2023/09/02 11:27:48;;;;;;;32.25;17.13;;;20.60;99.10;;;;;;5101474;28;20291;-89
2023/09/02 11:30:14;;;;;;;35.50;17.70;;;20.60;99.10;;;;;;5116645;28;20024;-89
2023/09/02 11:32:43;;;;;;;34.47;18.25;;;20.70;99.10;;;;;;5099968;28;20059;-89
2023/09/02 11:35:14;;;;;;;35.13;18.20;;;20.70;98.90;;;;;;5116760;28;20039;-89
2023/09/02 11:37:40;;;;;;;30.10;16.73;;;20.70;98.80;;;;;;5116852;28;20033;-89
2023/09/02 11:40:16;;;;;;;32.00;17.15;;;20.70;98.70;;;;;;5116786;28;20016;-89
2023/09/02 11:42:48;;;;;;;30.00;16.52;;;20.70;98.50;;;;;;5100137;28;20024;-89
2023/09/02 11:45:14;;;;;;;34.00;17.73;;;20.70;98.50;;;;;;5116935;28;20091;-90
2023/09/02 11:47:40;;;;;;;35.88;17.65;;;20.80;98.60;;;;;;5116689;28;20024;-90
2023/09/02 11:50:12;;;;;;;33.95;17.10;;;20.90;98.60;;;;;;5116615;28;20026;-89
2023/09/02 11:52:38;;;;;;;36.53;17.95;;;20.90;98.60;;;;;;5134633;28;20455;-88
2023/09/02 11:55:12;;;;;;;34.45;17.65;;;20.90;98.50;;;;;;5099521;28;20099;-89
2023/09/02 11:57:38;;;;;;;29.35;16.33;;;21.00;98.40;;;;;;5099580;28;20038;-88
2023/09/02 12:00:06;;;;;;;31.13;16.67;;;21.00;98.30;;;;;;5116804;28;20012;-89
2023/09/02 12:02:34;;;;;;;29.13;15.68;;;21.00;98.10;;;;;;5099772;28;20028;-89
2023/09/02 12:04:59;;;;;;;27.08;15.30;;;21.00;98.10;;;;;;5117072;28;20031;-88
2023/09/02 12:07:25;;;;;;;28.38;16.48;;;21.10;98.00;;;;;;5099570;28;20066;-89
2023/09/02 12:09:51;;;;;;;30.08;15.85;;;21.10;97.90;;;;;;5116542;28;20027;-89
2023/09/02 12:12:17;;;;;;;31.80;17.50;;;21.10;97.80;;;;;;5099383;28;20067;-89
2023/09/02 12:14:43;;;;;;;30.00;16.98;;;21.20;97.80;;;;;;5099530;28;20019;-89
2023/09/02 12:17:09;;;;;;;31.48;16.27;;;21.20;97.80;;;;;;5099561;28;20054;-89
2023/09/02 12:19:35;;;;;;;26.52;15.60;;;21.20;97.70;;;;;;5101241;28;20023;-89
2023/09/02 12:22:01;;;;;;;30.08;15.77;;;21.20;97.50;;;;;;5103184;28;20497;-89
2023/09/02 12:24:29;;;;;;;27.85;15.73;;;21.20;97.50;;;;;;5103056;28;20133;-88
2023/09/02 12:26:55;;;;;;;27.20;16.00;;;21.20;97.50;;;;;;5119910;28;20028;-87
2023/09/02 12:29:22;;;;;;;25.40;15.18;;;21.20;97.40;;;;;;5120033;28;20022;-89
2023/09/02 12:31:55;;;;;;;27.23;15.32;;;21.20;97.30;;;;;;5103169;28;20052;-89